sensor_id;sensor_type;location;lat;lon;timestamp;P1;P2;P0
79317;PMS7003;68779;50.036;19.964;2024-01-30T00:05:31;36;30;19
79317;PMS7003;68779;50.036;19.964;2024-01-30T00:35:47;42;34;22
79317;PMS7003;68779;50.036;19.964;2024-01-30T01:06:04;41;34;22
79317;PMS7003;68779;50.036;19.964;2024-01-30T01:36:21;42;34;21
79317;PMS7003;68779;50.036;19.964;2024-01-30T02:06:36;50;40;26
79317;PMS7003;68779;50.036;19.964;2024-01-30T02:36:53;55;46;31
79317;PMS7003;68779;50.036;19.964;2024-01-30T03:07:09;47;40;27
79317;PMS7003;68779;50.036;19.964;2024-01-30T03:37:25;49;40;26
79317;PMS7003;68779;50.036;19.964;2024-01-30T04:07:42;40;34;22
79317;PMS7003;68779;50.036;19.964;2024-01-30T04:37:58;46;35;21
79317;PMS7003;68779;50.036;19.964;2024-01-30T05:08:15;40;32;20
79317;PMS7003;68779;50.036;19.964;2024-01-30T06:08:59;47;38;26
79317;PMS7003;68779;50.036;19.964;2024-01-30T06:39:14;36;30;20
79317;PMS7003;68779;50.036;19.964;2024-01-30T07:09:28;34;30;20
79317;PMS7003;68779;50.036;19.964;2024-01-30T07:39:54;49;41;27
79317;PMS7003;68779;50.036;19.964;2024-01-30T08:10:11;42;34;23
79317;PMS7003;68779;50.036;19.964;2024-01-30T08:40:26;49;39;25
79317;PMS7003;68779;50.036;19.964;2024-01-30T09:10:41;52;44;29
79317;PMS7003;68779;50.036;19.964;2024-01-30T09:40:56;45;36;23
79317;PMS7003;68779;50.036;19.964;2024-01-30T10:11:14;44;37;25
79317;PMS7003;68779;50.036;19.964;2024-01-30T10:41:28;37;31;21
79317;PMS7003;68779;50.036;19.964;2024-01-30T11:11:49;35;31;21
79317;PMS7003;68779;50.036;19.964;2024-01-30T11:42:10;32;29;19
79317;PMS7003;68779;50.036;19.964;2024-01-30T12:12:28;25;23;16
79317;PMS7003;68779;50.036;19.964;2024-01-30T12:42:45;22;21;14
79317;PMS7003;68779;50.036;19.964;2024-01-30T13:13:02;25;23;16
79317;PMS7003;68779;50.036;19.964;2024-01-30T13:43:16;31;28;18
79317;PMS7003;68779;50.036;19.964;2024-01-30T14:13:34;46;40;27
79317;PMS7003;68779;50.036;19.964;2024-01-30T14:43:48;43;35;24
79317;PMS7003;68779;50.036;19.964;2024-01-30T15:14:02;44;37;26
79317;PMS7003;68779;50.036;19.964;2024-01-30T15:44:17;47;41;29
79317;PMS7003;68779;50.036;19.964;2024-01-30T16:14:36;45;37;24
79317;PMS7003;68779;50.036;19.964;2024-01-30T16:44:50;42;35;25
79317;PMS7003;68779;50.036;19.964;2024-01-30T18:32:36;59;50;34
79317;PMS7003;68779;50.036;19.964;2024-01-30T19:02:53;53;43;29
79317;PMS7003;68779;50.036;19.964;2024-01-30T19:33:10;57;48;31
79317;PMS7003;68779;50.036;19.964;2024-01-30T20:03:27;54;45;31
79317;PMS7003;68779;50.036;19.964;2024-01-30T20:33:41;50;41;25
79317;PMS7003;68779;50.036;19.964;2024-01-30T21:03:55;54;44;31
79317;PMS7003;68779;50.036;19.964;2024-01-30T21:34:13;54;43;26
79317;PMS7003;68779;50.036;19.964;2024-01-30T22:04:31;62;50;31
79317;PMS7003;68779;50.036;19.964;2024-01-30T22:34:45;53;44;27
79317;PMS7003;68779;50.036;19.964;2024-01-30T23:35:28;36;31;21
